createdAt,value
2019-05-17T00:02:07.010Z,73.40
2019-05-17T00:04:36.319Z,73.90
2019-05-17T00:07:03.034Z,70.70
2019-05-17T00:09:29.868Z,72.30
2019-05-17T00:11:56.985Z,72.60
2019-05-17T00:14:23.774Z,73.30
2019-05-17T00:16:50.573Z,74.10
2019-05-17T00:19:17.408Z,72.40
2019-05-17T00:21:44.226Z,71.50
2019-05-17T00:24:11.045Z,70.90
2019-05-17T00:26:39.748Z,70.80
2019-05-17T00:29:06.986Z,68.60
2019-05-17T00:31:33.881Z,69.40
2019-05-17T00:34:00.714Z,69.90
2019-05-17T00:36:27.496Z,69.20
2019-05-17T00:38:56.649Z,69.80
2019-05-17T00:41:23.056Z,70.00
2019-05-17T00:43:50.285Z,68.90
2019-05-17T00:46:17.373Z,68.00
2019-05-17T00:48:46.497Z,68.50
2019-05-17T00:51:12.924Z,67.70
2019-05-17T00:53:39.992Z,66.60
2019-05-17T00:56:06.829Z,69.60
2019-05-17T00:58:33.667Z,69.80
2019-05-17T01:01:00.461Z,69.80
2019-05-17T01:03:27.404Z,71.00
2019-05-17T01:05:56.657Z,70.90
2019-05-17T01:08:23.206Z,70.70
2019-05-17T01:10:50.001Z,71.30
2019-05-17T01:13:17.272Z,70.90
2019-05-17T01:15:44.301Z,71.50
2019-05-17T01:18:11.636Z,71.00
2019-05-17T01:20:38.433Z,72.70
2019-05-17T01:23:07.459Z,73.50
2019-05-17T01:25:36.767Z,71.70
2019-05-17T01:28:07.275Z,72.80
2019-05-17T01:30:33.687Z,71.70
2019-05-17T01:33:00.504Z,72.00
2019-05-17T01:35:27.328Z,73.00
2019-05-17T01:37:56.416Z,72.80
2019-05-17T01:40:23.137Z,72.50
2019-05-17T01:42:49.982Z,71.00
2019-05-17T01:45:17.922Z,70.50
2019-05-17T01:47:47.272Z,68.70
2019-05-17T01:50:17.260Z,68.00
2019-05-17T01:52:45.863Z,69.40
2019-05-17T01:55:13.548Z,69.70
2019-05-17T01:57:40.337Z,69.90
2019-05-17T02:00:10.727Z,70.00
2019-05-17T02:02:43.627Z,69.70
2019-05-17T02:05:11.931Z,69.40
2019-05-17T02:07:38.734Z,70.40
2019-05-17T02:10:10.054Z,70.10
2019-05-17T02:12:37.323Z,70.80
2019-05-17T02:15:07.437Z,72.30
2019-05-17T02:17:34.255Z,71.10
2019-05-17T02:20:01.351Z,70.30
2019-05-17T02:22:28.236Z,71.60
2019-05-17T02:24:56.785Z,72.70
2019-05-17T02:27:28.378Z,72.30
2019-05-17T02:29:53.262Z,71.50
2019-05-17T02:32:23.468Z,72.00
2019-05-17T02:34:49.740Z,73.40
2019-05-17T02:37:16.541Z,74.50
2019-05-17T02:39:57.070Z,74.70
2019-05-17T02:42:13.816Z,75.00
2019-05-17T02:44:43.773Z,73.70
2019-05-17T02:47:09.684Z,74.00
2019-05-17T02:49:36.489Z,74.70
2019-05-17T02:52:03.560Z,75.80
2019-05-17T02:54:32.847Z,75.30
2019-05-17T02:57:02.810Z,75.40
2019-05-17T02:59:28.432Z,74.60
2019-05-17T03:01:55.443Z,74.50
2019-05-17T03:04:23.615Z,74.80
2019-05-17T03:06:53.272Z,75.10
2019-05-17T03:09:22.658Z,75.00
2019-05-17T03:11:48.922Z,74.50
2019-05-17T03:14:15.998Z,73.70
2019-05-17T03:16:43.360Z,73.40
2019-05-17T03:19:13.037Z,72.80
2019-05-17T03:21:38.908Z,72.80
2019-05-17T03:24:05.747Z,72.70
2019-05-17T03:26:32.967Z,73.00
2019-05-17T03:29:03.137Z,73.40
2019-05-17T03:31:36.040Z,74.40
2019-05-17T03:33:59.613Z,75.50
2019-05-17T03:36:26.878Z,75.00
2019-05-17T03:38:54.697Z,75.30
2019-05-17T03:41:27.818Z,76.70
2019-05-17T03:43:53.040Z,75.20
2019-05-17T03:46:19.016Z,73.70
2019-05-17T03:48:47.926Z,75.00
2019-05-17T03:51:15.012Z,75.20
2019-05-17T03:53:44.144Z,75.00
2019-05-17T03:56:13.344Z,74.90
2019-05-17T03:58:39.530Z,73.70
2019-05-17T04:01:06.556Z,73.60
2019-05-17T04:03:35.580Z,73.30
2019-05-17T04:06:03.808Z,73.50
2019-05-17T04:08:33.458Z,73.80
2019-05-17T04:11:16.191Z,72.10
2019-05-17T04:13:28.859Z,73.90
2019-05-17T04:15:55.677Z,74.10
2019-05-17T04:18:23.406Z,73.30
2019-05-17T04:20:52.768Z,73.70
2019-05-17T04:23:23.007Z,74.30
2019-05-17T04:25:48.185Z,73.10
2019-05-17T04:28:15.017Z,73.50
2019-05-17T04:30:43.298Z,72.80
2019-05-17T04:33:12.825Z,72.90
2019-05-17T04:35:39.233Z,72.60
2019-05-17T04:38:06.056Z,72.30
2019-05-17T04:40:33.931Z,72.90
2019-05-17T04:43:03.225Z,73.00
2019-05-17T04:45:33.174Z,71.90
2019-05-17T04:47:58.771Z,70.90
2019-05-17T04:50:25.606Z,72.80
2019-05-17T04:52:53.681Z,72.70
2019-05-17T04:55:23.089Z,70.90
2019-05-17T04:57:52.677Z,71.20
2019-05-17T05:00:18.564Z,71.30
2019-05-17T05:02:45.381Z,69.70
2019-05-17T05:05:13.952Z,70.00
2019-05-17T05:07:43.143Z,71.50
2019-05-17T05:10:13.528Z,70.30
2019-05-17T05:12:39.174Z,69.60
2019-05-17T05:15:06.864Z,69.60
2019-05-17T05:17:34.050Z,68.50
2019-05-17T05:20:02.912Z,68.60
2019-05-17T05:22:32.749Z,68.10
2019-05-17T05:24:58.696Z,67.90
2019-05-17T05:27:25.497Z,69.70
2019-05-17T05:29:52.699Z,69.80
2019-05-17T05:32:19.505Z,70.70
2019-05-17T05:34:46.551Z,70.80
2019-05-17T05:37:13.732Z,69.90
2019-05-17T05:39:41.389Z,69.80
2019-05-17T05:42:11.535Z,70.00
2019-05-17T05:44:37.274Z,69.60
2019-05-17T05:47:04.217Z,69.60
2019-05-17T05:49:32.093Z,69.70
2019-05-17T05:52:01.961Z,69.20
2019-05-17T05:54:29.029Z,71.40
2019-05-17T05:56:55.829Z,70.70
2019-05-17T05:59:22.710Z,71.10
2019-05-17T06:01:49.562Z,71.40
2019-05-17T06:04:16.359Z,73.10
2019-05-17T06:06:43.267Z,72.60
2019-05-17T06:09:12.106Z,71.80
2019-05-17T06:11:41.489Z,72.40
2019-05-17T06:14:07.972Z,72.40
2019-05-17T06:16:34.750Z,71.90
2019-05-17T06:19:02.373Z,73.50
2019-05-17T06:21:31.796Z,74.30
2019-05-17T06:23:58.402Z,75.20
2019-05-17T06:26:25.185Z,77.30
2019-05-17T06:28:51.993Z,76.40
2019-05-17T06:31:19.044Z,76.40
2019-05-17T06:33:46.139Z,74.50
2019-05-17T06:36:13.658Z,74.50
2019-05-17T06:38:42.024Z,75.20
2019-05-17T06:41:09.295Z,74.60
2019-05-17T06:43:38.464Z,72.60
2019-05-17T06:46:04.806Z,73.40
2019-05-17T06:48:31.917Z,70.20
2019-05-17T06:50:59.431Z,71.10
2019-05-17T06:53:26.320Z,71.70
2019-05-17T06:55:53.533Z,73.10
2019-05-17T06:58:22.274Z,74.80
2019-05-17T07:00:49.814Z,74.80
2019-05-17T07:03:16.731Z,73.00
2019-05-17T07:05:50.155Z,72.40
2019-05-17T07:08:17.099Z,73.30
2019-05-17T07:10:44.095Z,72.90
2019-05-17T07:13:11.013Z,72.60
2019-05-17T07:15:44.779Z,72.30
2019-05-17T07:18:06.471Z,76.60
2019-05-17T07:20:33.286Z,79.20
2019-05-17T07:23:00.550Z,78.00
2019-05-17T07:25:27.722Z,83.30
2019-05-17T07:27:54.866Z,81.40
2019-05-17T07:30:22.854Z,82.20
2019-05-17T07:32:52.860Z,83.40
2019-05-17T07:35:19.931Z,82.30
2019-05-17T07:37:46.757Z,80.00
2019-05-17T07:40:14.459Z,80.60
2019-05-17T07:42:41.352Z,80.00
2019-05-17T07:45:10.074Z,78.30
2019-05-17T07:47:37.275Z,81.00
2019-05-17T07:50:06.430Z,82.80
2019-05-17T07:52:33.225Z,83.90
2019-05-17T07:55:02.375Z,82.20
2019-05-17T07:57:29.964Z,80.00
2019-05-17T07:59:57.040Z,78.10
2019-05-17T08:02:23.878Z,78.20
2019-05-17T08:04:50.669Z,80.80
2019-05-17T08:07:19.605Z,81.60
2019-05-17T08:09:46.185Z,80.70
2019-05-17T08:12:13.019Z,80.50
2019-05-17T08:14:40.138Z,78.10
2019-05-17T08:17:07.075Z,78.00
2019-05-17T08:19:33.978Z,77.10
2019-05-17T08:22:00.761Z,77.00
2019-05-17T08:24:27.638Z,76.60
2019-05-17T08:26:54.504Z,78.00
2019-05-17T08:29:21.315Z,76.60
2019-05-17T08:31:49.692Z,78.10
2019-05-17T08:34:17.157Z,79.00
2019-05-17T08:36:44.031Z,77.30
2019-05-17T08:39:10.804Z,78.50
2019-05-17T08:41:40.236Z,77.00
2019-05-17T08:44:06.398Z,75.20
2019-05-17T08:46:33.219Z,74.60
2019-05-17T08:49:00.483Z,75.10
2019-05-17T08:51:27.448Z,75.00
2019-05-17T08:53:54.596Z,73.90
2019-05-17T08:56:21.834Z,75.50
2019-05-17T08:58:49.825Z,74.20
2019-05-17T09:01:19.396Z,74.00
2019-05-17T09:03:45.736Z,73.60
2019-05-17T09:06:12.881Z,73.10
2019-05-17T09:08:40.651Z,72.60
2019-05-17T09:11:09.909Z,73.50
2019-05-17T09:13:36.258Z,74.00
2019-05-17T09:16:03.041Z,74.50
2019-05-17T09:18:30.297Z,74.00
2019-05-17T09:20:57.440Z,73.60
2019-05-17T09:23:24.381Z,73.90
2019-05-17T09:25:51.584Z,74.10
2019-05-17T09:28:20.331Z,73.30
2019-05-17T09:30:47.054Z,72.40
2019-05-17T09:33:13.852Z,73.60
2019-05-17T09:35:41.264Z,72.60
2019-05-17T09:38:10.207Z,72.60
2019-05-17T09:40:39.899Z,72.00
2019-05-17T09:43:05.972Z,72.00
2019-05-17T09:45:33.058Z,72.10
2019-05-17T09:48:00.679Z,71.00
2019-05-17T09:50:29.369Z,71.60
2019-05-17T09:52:56.509Z,71.40
2019-05-17T09:55:23.318Z,71.70
2019-05-17T09:57:50.141Z,70.20
2019-05-17T10:00:20.630Z,70.40
2019-05-17T10:02:46.781Z,70.40
2019-05-17T10:05:13.572Z,69.90
2019-05-17T10:07:40.623Z,70.30
2019-05-17T10:10:10.523Z,70.30
2019-05-17T10:12:40.055Z,70.90
2019-05-17T10:15:06.890Z,71.00
2019-05-17T10:17:33.988Z,69.90
2019-05-17T10:20:00.819Z,70.80
2019-05-17T10:22:27.620Z,70.60
2019-05-17T10:24:54.469Z,69.20
2019-05-17T10:27:21.248Z,69.20
2019-05-17T10:29:50.107Z,69.00
2019-05-17T10:32:16.754Z,68.00
2019-05-17T10:34:43.597Z,68.10
2019-05-17T10:37:10.615Z,67.50
2019-05-17T10:39:39.465Z,67.60
2019-05-17T10:42:06.294Z,67.90
2019-05-17T10:44:46.335Z,67.90
2019-05-17T10:47:01.777Z,67.20
2019-05-17T10:49:29.491Z,67.20
2019-05-17T10:51:56.664Z,66.50
2019-05-17T10:54:23.508Z,68.80
2019-05-17T10:56:50.383Z,69.30
2019-05-17T10:59:17.262Z,67.30
2019-05-17T11:01:44.226Z,68.60
2019-05-17T11:04:11.236Z,68.60
2019-05-17T11:06:39.397Z,69.90
2019-05-17T11:09:07.162Z,69.60
2019-05-17T11:11:33.956Z,70.80
2019-05-17T11:14:01.201Z,69.00
2019-05-17T11:16:28.288Z,70.20
2019-05-17T11:18:55.161Z,71.80
2019-05-17T11:21:21.959Z,71.20
2019-05-17T11:23:49.040Z,74.60
2019-05-17T11:26:15.920Z,74.00
2019-05-17T11:28:42.797Z,77.10
2019-05-17T11:31:09.970Z,74.80
2019-05-17T11:33:36.754Z,76.40
2019-05-17T11:36:03.563Z,77.50
2019-05-17T11:38:30.786Z,75.50
2019-05-17T11:40:57.585Z,74.20
2019-05-17T11:43:24.388Z,72.80
2019-05-17T11:45:51.620Z,75.60
2019-05-17T11:48:18.445Z,76.50
2019-05-17T11:50:45.259Z,75.00
2019-05-17T11:53:12.110Z,75.00
2019-05-17T11:55:38.907Z,76.80
2019-05-17T11:58:05.746Z,75.60
2019-05-17T12:00:32.550Z,74.60
2019-05-17T12:02:59.335Z,74.60
2019-05-17T12:05:26.451Z,76.90
2019-05-17T12:07:53.443Z,74.80
2019-05-17T12:10:20.266Z,77.60
2019-05-17T12:12:47.167Z,76.40
2019-05-17T12:15:14.598Z,75.80
2019-05-17T12:17:41.454Z,72.10
2019-05-17T12:20:09.244Z,72.60
2019-05-17T12:22:36.191Z,72.10
2019-05-17T12:25:05.121Z,69.90
2019-05-17T12:27:31.913Z,68.80
2019-05-17T12:29:58.758Z,69.20
2019-05-17T12:32:25.562Z,69.00
2019-05-17T12:34:52.375Z,70.10
2019-05-17T12:37:19.244Z,70.10
2019-05-17T12:39:46.291Z,69.20
2019-05-17T12:42:13.287Z,70.90
2019-05-17T12:44:40.339Z,73.60
2019-05-17T12:47:07.325Z,71.00
2019-05-17T12:49:34.132Z,71.00
2019-05-17T12:52:00.945Z,73.10
2019-05-17T12:54:27.743Z,72.80
2019-05-17T12:56:54.537Z,72.20
2019-05-17T12:59:21.455Z,71.00
2019-05-17T13:01:48.232Z,68.70
2019-05-17T13:04:15.029Z,67.70
2019-05-17T13:06:41.959Z,65.80
2019-05-17T13:09:08.767Z,64.90
2019-05-17T13:11:35.589Z,63.90
2019-05-17T13:14:03.229Z,63.80
2019-05-17T13:16:30.161Z,62.80
2019-05-17T13:18:56.973Z,62.80
2019-05-17T13:21:23.911Z,61.20
2019-05-17T13:23:50.759Z,60.80
2019-05-17T13:26:17.879Z,61.00
2019-05-17T13:28:44.709Z,59.80
2019-05-17T13:31:11.572Z,60.00
2019-05-17T13:33:38.627Z,60.20
2019-05-17T13:36:05.577Z,60.70
2019-05-17T13:38:32.441Z,60.00
2019-05-17T13:40:59.282Z,57.90
2019-05-17T13:43:26.260Z,58.70
2019-05-17T13:45:53.257Z,56.80
2019-05-17T13:48:20.050Z,55.90
2019-05-17T13:50:47.133Z,55.00
2019-05-17T13:53:14.098Z,54.80
2019-05-17T13:55:40.979Z,54.60
2019-05-17T13:58:08.901Z,54.50
2019-05-17T14:00:35.881Z,55.40
2019-05-17T14:03:02.678Z,55.10
2019-05-17T14:05:29.697Z,55.10
2019-05-17T14:07:56.763Z,54.40
2019-05-17T14:10:27.825Z,54.90
2019-05-17T14:12:52.469Z,54.80
2019-05-17T14:15:19.444Z,54.30
2019-05-17T14:17:46.508Z,54.40
2019-05-17T14:20:14.794Z,54.30
2019-05-17T14:22:41.634Z,55.10
2019-05-17T14:25:08.524Z,55.70
2019-05-17T14:27:35.338Z,56.20
2019-05-17T14:30:04.569Z,54.90
2019-05-17T14:32:31.740Z,54.30
2019-05-17T14:34:58.716Z,54.80
2019-05-17T14:37:25.536Z,54.10
2019-05-17T14:39:52.433Z,53.40
2019-05-17T14:42:19.683Z,52.40
2019-05-17T14:44:46.521Z,53.60
2019-05-17T14:47:13.315Z,53.50
2019-05-17T14:49:40.520Z,53.70
2019-05-17T14:52:07.385Z,53.00
2019-05-17T14:54:34.544Z,52.60
2019-05-17T14:57:01.655Z,49.00
2019-05-17T14:59:28.451Z,50.20
2019-05-17T15:01:55.382Z,51.30
2019-05-17T15:04:22.239Z,51.50
2019-05-17T15:06:49.078Z,51.20
2019-05-17T15:09:15.863Z,50.10
2019-05-17T15:11:42.705Z,49.70
2019-05-17T15:14:09.477Z,49.60
2019-05-17T15:16:39.140Z,49.30
2019-05-17T15:19:06.092Z,49.40
2019-05-17T15:21:32.873Z,49.30
2019-05-17T15:23:59.661Z,49.40
2019-05-17T15:26:26.838Z,50.00
2019-05-17T15:28:53.636Z,49.70
2019-05-17T15:31:20.475Z,49.60
2019-05-17T15:33:47.304Z,50.40
2019-05-17T15:36:14.400Z,50.10
2019-05-17T15:38:41.206Z,50.10
2019-05-17T15:41:08.005Z,50.00
2019-05-17T15:43:34.806Z,50.20
2019-05-17T15:46:01.757Z,50.50
2019-05-17T15:48:28.626Z,49.70
2019-05-17T15:50:55.414Z,48.80
2019-05-17T15:53:22.458Z,50.00
2019-05-17T15:55:49.261Z,49.70
2019-05-17T15:58:16.049Z,50.30
2019-05-17T16:00:43.158Z,50.10
2019-05-17T16:03:10.015Z,50.40
2019-05-17T16:05:37.050Z,50.60
2019-05-17T16:08:03.920Z,50.10
2019-05-17T16:10:31.167Z,51.30
2019-05-17T16:13:03.250Z,51.50
2019-05-17T16:15:26.667Z,52.10
2019-05-17T16:17:53.685Z,52.30
2019-05-17T16:20:20.472Z,51.60
2019-05-17T16:22:47.389Z,52.00
2019-05-17T16:25:14.500Z,52.20
2019-05-17T16:27:41.308Z,50.70
2019-05-17T16:30:09.015Z,49.80
2019-05-17T16:32:35.864Z,49.30
2019-05-17T16:35:03.580Z,48.20
2019-05-17T16:37:30.535Z,47.60
2019-05-17T16:39:57.595Z,48.80
2019-05-17T16:42:24.381Z,48.10
2019-05-17T16:44:51.184Z,49.00
2019-05-17T16:47:18.165Z,48.20
2019-05-17T16:49:45.010Z,48.50
2019-05-17T16:52:11.967Z,49.50
2019-05-17T16:54:38.780Z,49.10
2019-05-17T16:57:05.771Z,48.70
2019-05-17T16:59:32.893Z,48.80
2019-05-17T17:01:59.670Z,48.80
2019-05-17T17:04:26.821Z,49.90
2019-05-17T17:06:53.608Z,50.10
2019-05-17T17:09:21.018Z,49.80
2019-05-17T17:11:47.797Z,50.30
2019-05-17T17:14:14.614Z,50.60
2019-05-17T17:16:41.449Z,50.20
2019-05-17T17:19:08.233Z,50.60
2019-05-17T17:21:35.019Z,50.30
2019-05-17T17:24:02.363Z,49.60
2019-05-17T17:26:29.153Z,48.80
2019-05-17T17:28:55.928Z,48.40
2019-05-17T17:31:23.167Z,48.00
2019-05-17T17:33:49.961Z,47.40
2019-05-17T17:36:19.464Z,45.50
2019-05-17T17:38:45.835Z,45.20
2019-05-17T17:41:12.851Z,46.70
2019-05-17T17:43:39.742Z,47.00
2019-05-17T17:46:06.952Z,47.50
2019-05-17T17:48:33.770Z,46.80
2019-05-17T17:51:00.548Z,47.40
2019-05-17T17:53:27.466Z,48.00
2019-05-17T17:55:54.267Z,48.60
2019-05-17T17:58:21.069Z,52.70
2019-05-17T18:00:48.308Z,55.20
2019-05-17T18:03:15.084Z,53.10
2019-05-17T18:05:41.916Z,53.20
2019-05-17T18:08:08.745Z,54.10
2019-05-17T18:10:36.260Z,53.40
2019-05-17T18:13:03.284Z,54.10
2019-05-17T18:15:41.751Z,53.70
2019-05-17T18:18:08.757Z,54.80
2019-05-17T18:20:35.958Z,55.60
2019-05-17T18:23:04.003Z,54.30
2019-05-17T18:25:30.803Z,53.90
2019-05-17T18:27:58.493Z,53.80
2019-05-17T18:30:25.753Z,54.00
2019-05-17T18:32:52.694Z,54.60
2019-05-17T18:35:19.490Z,54.80
2019-05-17T18:37:46.310Z,54.80
2019-05-17T18:40:13.695Z,56.30
2019-05-17T18:42:40.498Z,55.90
2019-05-17T18:45:07.844Z,54.80
2019-05-17T18:47:35.393Z,54.90
2019-05-17T18:50:03.781Z,56.50
2019-05-17T18:52:30.911Z,54.60
2019-05-17T18:54:57.720Z,54.40
2019-05-17T18:57:24.490Z,53.70
2019-05-17T18:59:51.294Z,54.50
2019-05-17T19:02:18.502Z,54.10
2019-05-17T19:04:45.283Z,54.20
2019-05-17T19:07:12.136Z,55.30
2019-05-17T19:09:38.960Z,54.70
2019-05-17T19:12:05.757Z,53.80
2019-05-17T19:14:42.492Z,53.80
2019-05-17T19:17:01.283Z,53.00
2019-05-17T19:19:28.095Z,54.10
2019-05-17T19:21:54.910Z,54.40
2019-05-17T19:24:21.702Z,53.70
2019-05-17T19:26:48.517Z,53.30
2019-05-17T19:29:15.604Z,53.60
2019-05-17T19:31:42.397Z,53.40
2019-05-17T19:34:09.218Z,53.90
2019-05-17T19:36:36.030Z,53.20
2019-05-17T19:39:04.916Z,54.20
2019-05-17T19:41:31.723Z,53.90
2019-05-17T19:43:58.573Z,54.00
2019-05-17T19:46:25.378Z,54.20
2019-05-17T19:48:52.175Z,54.00
2019-05-17T19:51:19.485Z,54.40
2019-05-17T19:53:46.277Z,54.90
2019-05-17T19:56:13.191Z,54.10
2019-05-17T19:58:40.304Z,54.30
2019-05-17T20:01:07.095Z,54.30
2019-05-17T20:03:33.913Z,54.20
2019-05-17T20:06:00.739Z,54.10
2019-05-17T20:08:27.693Z,55.80
2019-05-17T20:10:54.517Z,53.70
2019-05-17T20:13:21.658Z,52.80
2019-05-17T20:15:48.467Z,53.60
2019-05-17T20:18:15.248Z,53.10
2019-05-17T20:20:42.047Z,53.00
2019-05-17T20:23:08.842Z,53.20
2019-05-17T20:25:35.835Z,53.00
2019-05-17T20:28:02.956Z,53.70
2019-05-17T20:30:29.792Z,53.30
2019-05-17T20:32:56.595Z,53.20
2019-05-17T20:35:23.464Z,53.60
2019-05-17T20:37:50.259Z,53.50
2019-05-17T20:40:19.649Z,53.50
2019-05-17T20:42:46.841Z,53.40
2019-05-17T20:45:14.234Z,53.40
2019-05-17T20:47:41.199Z,53.70
2019-05-17T20:50:09.221Z,53.70
2019-05-17T20:52:36.009Z,53.30
2019-05-17T20:55:04.393Z,53.40
2019-05-17T20:57:31.204Z,53.20
2019-05-17T20:59:58.003Z,52.90
2019-05-17T21:02:24.819Z,53.70
2019-05-17T21:04:51.828Z,53.50
2019-05-17T21:07:18.646Z,54.00
2019-05-17T21:09:45.883Z,52.90
2019-05-17T21:12:12.743Z,53.20
2019-05-17T21:14:39.861Z,53.10
2019-05-17T21:17:06.659Z,53.20
2019-05-17T21:19:33.576Z,53.40
2019-05-17T21:22:00.706Z,53.60
2019-05-17T21:24:27.495Z,53.50
2019-05-17T21:26:54.321Z,53.70
2019-05-17T21:29:21.120Z,54.10
2019-05-17T21:31:48.024Z,54.20
2019-05-17T21:34:15.244Z,55.10
2019-05-17T21:36:42.053Z,56.30
2019-05-17T21:39:08.893Z,57.40
2019-05-17T21:41:35.703Z,56.80
2019-05-17T21:44:03.088Z,56.30
2019-05-17T21:46:29.897Z,56.40
2019-05-17T21:48:56.806Z,55.90
2019-05-17T21:51:23.587Z,55.30
2019-05-17T21:53:50.376Z,55.90
2019-05-17T21:56:17.386Z,55.60
2019-05-17T21:58:44.694Z,55.20
2019-05-17T22:01:16.880Z,55.00
2019-05-17T22:03:43.702Z,54.70
2019-05-17T22:06:10.622Z,54.60
2019-05-17T22:08:38.020Z,54.60
2019-05-17T22:11:04.961Z,54.70
2019-05-17T22:13:31.759Z,54.70
2019-05-17T22:15:58.545Z,55.50
2019-05-17T22:18:25.672Z,56.20
2019-05-17T22:20:52.475Z,56.60
2019-05-17T22:23:19.284Z,56.60
2019-05-17T22:25:46.071Z,56.40
2019-05-17T22:28:12.864Z,56.40
2019-05-17T22:30:39.674Z,55.20
2019-05-17T22:33:06.505Z,54.00
2019-05-17T22:35:33.302Z,54.20
2019-05-17T22:38:00.536Z,54.20
2019-05-17T22:40:27.546Z,54.80
2019-05-17T22:42:54.353Z,55.20
2019-05-17T22:45:21.130Z,55.70
2019-05-17T22:47:48.381Z,56.10
2019-05-17T22:50:15.489Z,55.70
2019-05-17T22:52:42.274Z,55.40
2019-05-17T22:55:09.854Z,55.20
2019-05-17T22:57:36.721Z,55.50
2019-05-17T23:00:09.026Z,56.40
2019-05-17T23:02:35.944Z,56.80
2019-05-17T23:05:04.595Z,57.50
2019-05-17T23:07:31.374Z,58.00
2019-05-17T23:09:58.210Z,57.20
2019-05-17T23:12:25.014Z,57.50
2019-05-17T23:14:51.821Z,58.20
2019-05-17T23:17:18.867Z,57.80
2019-05-17T23:19:45.673Z,57.80
2019-05-17T23:22:12.466Z,57.80
2019-05-17T23:24:39.372Z,56.80
2019-05-17T23:27:06.262Z,56.80
2019-05-17T23:29:33.062Z,56.60
2019-05-17T23:32:00.371Z,56.50
2019-05-17T23:34:27.180Z,57.00
2019-05-17T23:36:53.970Z,57.70
2019-05-17T23:39:21.043Z,57.90
2019-05-17T23:41:47.836Z,58.40
2019-05-17T23:44:14.650Z,58.90
2019-05-17T23:46:41.478Z,59.50
2019-05-17T23:49:08.618Z,59.30
2019-05-17T23:51:35.418Z,60.00
2019-05-17T23:54:02.398Z,59.60
2019-05-17T23:56:29.201Z,60.10
2019-05-17T23:58:56.004Z,60.20
